Time;durP1;ratioP1;P1;durP2;ratioP2;P2;SDS_P1;SDS_P2;PMS_P1;PMS_P2;Temp;Humidity;BMP_temperature;BMP_pressure;BME280_temperature;BME280_humidity;BME280_pressure;Samples;Min_cycle;Max_cycle;Signal;HPM_P1;HPM_P2
2023/03/30 00:00:46;;;;;;;7.60;3.33;;;;;;;;;;5100333;28;20289;-64
2023/03/30 00:03:17;;;;;;;6.53;3.10;;;;;;;;;;5100521;28;20237;-64
2023/03/30 00:05:46;;;;;;;6.33;3.30;;;;;;;;;;5100281;28;20229;-65
2023/03/30 00:08:17;;;;;;;9.17;3.37;;;;;;;;;;5099877;28;20259;-64
2023/03/30 00:10:45;;;;;;;6.27;2.70;;;;;;;;;;5099811;28;20661;-64
2023/03/30 00:13:13;;;;;;;8.27;3.30;;;;;;;;;;5100302;28;20216;-64
2023/03/30 00:15:43;;;;;;;6.93;2.97;;;;;;;;;;5099961;28;20562;-65
2023/03/30 00:18:11;;;;;;;6.37;3.43;;;;;;;;;;5099987;28;20207;-64
2023/03/30 00:20:41;;;;;;;4.87;3.03;;;;;;;;;;5099747;28;20225;-64
2023/03/30 00:23:09;;;;;;;7.03;2.90;;;;;;;;;;5099643;28;20209;-64
2023/03/30 00:25:37;;;;;;;5.10;3.20;;;;;;;;;;5099660;28;20226;-64
2023/03/30 00:28:05;;;;;;;7.93;2.87;;;;;;;;;;5099724;28;20206;-64
2023/03/30 00:30:33;;;;;;;6.03;3.20;;;;;;;;;;5099840;28;20226;-64
2023/03/30 00:33:03;;;;;;;5.13;3.30;;;;;;;;;;5099434;28;20201;-64
2023/03/30 00:35:31;;;;;;;7.23;3.07;;;;;;;;;;5099557;28;20649;-63
2023/03/30 00:38:02;;;;;;;4.87;2.80;;;;;;;;;;5099428;28;20213;-64
2023/03/30 00:40:31;;;;;;;7.17;2.83;;;;;;;;;;5099240;28;20701;-64
2023/03/30 00:43:00;;;;;;;9.03;3.77;;;;;;;;;;5099224;28;20295;-64
2023/03/30 00:45:29;;;;;;;11.90;6.17;;;;;;;;;;5099591;28;20283;-64
2023/03/30 00:48:00;;;;;;;7.47;3.20;;;;;;;;;;5099164;28;20206;-64
2023/03/30 00:50:33;;;;;;;10.80;3.53;;;;;;;;;;5099275;28;20236;-64
2023/03/30 00:53:05;;;;;;;8.03;3.83;;;;;;;;;;5098926;28;20649;-64
2023/03/30 00:55:36;;;;;;;6.87;3.80;;;;;;;;;;5099415;28;20209;-64
2023/03/30 00:58:05;;;;;;;5.00;2.50;;;;;;;;;;5099027;28;20657;-64
2023/03/30 01:00:33;;;;;;;7.73;3.03;;;;;;;;;;5099025;28;20684;-64
2023/03/30 01:03:04;;;;;;;5.93;2.60;;;;;;;;;;5099204;28;20288;-64
2023/03/30 01:05:34;;;;;;;4.53;2.70;;;;;;;;;;5098889;28;20251;-64
2023/03/30 01:08:06;;;;;;;5.50;2.90;;;;;;;;;;5098677;28;20237;-63
2023/03/30 01:10:34;;;;;;;5.13;2.73;;;;;;;;;;5098703;28;20349;-64
2023/03/30 01:13:02;;;;;;;4.73;2.40;;;;;;;;;;5098893;28;20556;-62
2023/03/30 01:15:33;;;;;;;5.73;2.53;;;;;;;;;;5099059;28;20288;-63
2023/03/30 01:18:23;;;;;;;6.30;2.73;;;;;;;;;;5099002;28;20205;-63
2023/03/30 01:21:10;;;;;;;4.63;2.70;;;;;;;;;;5097163;28;20225;-64
2023/03/30 01:24:07;;;;;;;4.93;2.53;;;;;;;;;;5098630;28;20205;-64
2023/03/30 01:26:45;;;;;;;5.27;2.57;;;;;;;;;;5076132;28;20618;-62
2023/03/30 01:29:17;;;;;;;4.63;2.43;;;;;;;;;;5095006;28;20602;-64
2023/03/30 01:32:12;;;;;;;4.03;2.30;;;;;;;;;;5098394;28;20672;-63
2023/03/30 01:34:46;;;;;;;6.10;2.27;;;;;;;;;;5085575;28;20209;-63
2023/03/30 01:37:26;;;;;;;5.13;2.43;;;;;;;;;;5098264;28;20514;-64
2023/03/30 01:40:01;;;;;;;4.30;2.30;;;;;;;;;;5098368;28;20240;-62
2023/03/30 01:42:35;;;;;;;6.10;2.50;;;;;;;;;;5098628;28;20209;-64
2023/03/30 01:45:08;;;;;;;4.37;2.37;;;;;;;;;;5098292;28;20642;-64
2023/03/30 01:47:38;;;;;;;6.27;2.43;;;;;;;;;;5098289;28;20233;-64
2023/03/30 01:50:08;;;;;;;8.13;2.33;;;;;;;;;;5098374;28;20225;-64
2023/03/30 01:52:40;;;;;;;3.30;2.03;;;;;;;;;;5097886;28;20656;-64
2023/03/30 01:55:12;;;;;;;5.97;2.33;;;;;;;;;;5097905;28;20210;-64
2023/03/30 01:57:43;;;;;;;4.37;2.13;;;;;;;;;;5098276;28;20213;-63
2023/03/30 02:00:13;;;;;;;8.07;2.20;;;;;;;;;;5098008;28;20233;-63
2023/03/30 02:02:43;;;;;;;6.67;2.20;;;;;;;;;;5097951;28;20635;-65
2023/03/30 02:05:16;;;;;;;4.30;2.10;;;;;;;;;;5098433;28;20216;-63
2023/03/30 02:07:46;;;;;;;5.10;2.30;;;;;;;;;;5097760;28;20241;-63
2023/03/30 02:10:17;;;;;;;3.60;1.70;;;;;;;;;;5098716;28;20229;-63
2023/03/30 02:12:46;;;;;;;4.93;2.30;;;;;;;;;;5085299;28;20201;-63
2023/03/30 02:15:16;;;;;;;3.07;1.70;;;;;;;;;;5098103;28;20213;-64
2023/03/30 02:17:46;;;;;;;6.77;2.27;;;;;;;;;;5098209;28;20206;-63
2023/03/30 02:20:16;;;;;;;2.83;1.63;;;;;;;;;;5098080;28;20308;-64
2023/03/30 02:22:44;;;;;;;3.90;1.73;;;;;;;;;;5097662;28;20660;-63
2023/03/30 02:25:12;;;;;;;4.40;2.47;;;;;;;;;;5097748;28;20673;-63
2023/03/30 02:27:42;;;;;;;4.27;1.80;;;;;;;;;;5097751;28;20278;-62
2023/03/30 02:30:10;;;;;;;2.20;1.40;;;;;;;;;;5097902;28;20226;-64
2023/03/30 02:32:41;;;;;;;2.20;1.60;;;;;;;;;;5097946;28;20206;-63
2023/03/30 02:35:23;;;;;;;1.50;1.40;;;;;;;;;;5097700;28;20209;-63
2023/03/30 02:38:09;;;;;;;3.20;1.27;;;;;;;;;;5097753;28;20209;-64
2023/03/30 02:40:43;;;;;;;4.37;1.70;;;;;;;;;;5093869;28;20256;-64
2023/03/30 02:43:22;;;;;;;2.33;1.40;;;;;;;;;;5097852;28;20255;-64
2023/03/30 02:45:52;;;;;;;5.90;1.97;;;;;;;;;;5097538;28;20216;-64
2023/03/30 02:48:39;;;;;;;2.60;1.10;;;;;;;;;;5097457;28;20316;-63
2023/03/30 02:51:14;;;;;;;3.17;1.40;;;;;;;;;;5097413;28;20704;-63
2023/03/30 02:53:45;;;;;;;4.67;1.20;;;;;;;;;;5097582;28;20204;-63
2023/03/30 02:56:15;;;;;;;3.00;1.00;;;;;;;;;;5097709;28;20209;-64
2023/03/30 02:58:47;;;;;;;1.53;1.10;;;;;;;;;;5097562;28;20288;-63
2023/03/30 03:01:18;;;;;;;3.67;1.27;;;;;;;;;;5097475;28;20252;-63
2023/03/30 03:03:49;;;;;;;2.30;1.23;;;;;;;;;;5097506;28;20216;-63
2023/03/30 03:06:19;;;;;;;5.07;1.33;;;;;;;;;;5097317;28;20205;-63
2023/03/30 03:08:48;;;;;;;4.13;1.27;;;;;;;;;;5100385;28;20249;-62
2023/03/30 03:11:16;;;;;;;5.03;1.20;;;;;;;;;;5101372;28;20221;-63
2023/03/30 03:13:46;;;;;;;3.43;1.57;;;;;;;;;;5101096;28;20593;-63
2023/03/30 03:16:15;;;;;;;2.10;0.87;;;;;;;;;;5101322;28;20262;-63
2023/03/30 03:18:43;;;;;;;1.23;1.13;;;;;;;;;;5101006;28;20584;-64
2023/03/30 03:21:12;;;;;;;1.97;1.13;;;;;;;;;;5100988;28;20709;-63
2023/03/30 03:23:41;;;;;;;1.30;1.10;;;;;;;;;;5100724;28;20576;-62
2023/03/30 03:26:10;;;;;;;4.70;1.30;;;;;;;;;;5101262;28;20201;-64
2023/03/30 03:28:38;;;;;;;1.27;1.17;;;;;;;;;;5100956;28;20236;-63
2023/03/30 03:31:08;;;;;;;1.57;0.90;;;;;;;;;;5101037;28;20225;-63
2023/03/30 03:33:36;;;;;;;2.80;1.10;;;;;;;;;;5100738;28;20237;-63
2023/03/30 03:36:04;;;;;;;4.37;1.20;;;;;;;;;;5101126;28;20205;-63
2023/03/30 03:38:33;;;;;;;6.63;1.30;;;;;;;;;;5100435;28;20703;-63
2023/03/30 03:41:01;;;;;;;1.47;0.90;;;;;;;;;;5100841;28;20217;-63
2023/03/30 03:43:29;;;;;;;4.93;0.90;;;;;;;;;;5100838;28;20209;-64
2023/03/30 03:45:57;;;;;;;1.20;1.10;;;;;;;;;;5100518;28;20229;-63
2023/03/30 03:48:27;;;;;;;3.40;1.10;;;;;;;;;;5100785;28;20229;-63
2023/03/30 03:50:55;;;;;;;2.07;1.30;;;;;;;;;;5100383;28;20226;-63
2023/03/30 03:53:24;;;;;;;2.13;1.10;;;;;;;;;;5100123;28;20242;-63
2023/03/30 03:55:52;;;;;;;2.70;0.90;;;;;;;;;;5100318;28;20568;-63
2023/03/30 03:58:20;;;;;;;2.17;1.30;;;;;;;;;;5100370;28;20683;-64
2023/03/30 04:00:48;;;;;;;1.93;0.90;;;;;;;;;;5100078;28;20358;-63
2023/03/30 04:03:16;;;;;;;0.80;0.80;;;;;;;;;;5100556;28;20209;-64
2023/03/30 04:05:45;;;;;;;1.23;0.77;;;;;;;;;;5100459;28;20297;-62
2023/03/30 04:08:16;;;;;;;2.23;1.20;;;;;;;;;;5099799;28;20238;-62
2023/03/30 04:10:44;;;;;;;2.13;1.50;;;;;;;;;;5100172;28;20221;-64
2023/03/30 04:13:12;;;;;;;2.93;0.83;;;;;;;;;;5100067;28;20220;-64
2023/03/30 04:15:40;;;;;;;3.90;1.00;;;;;;;;;;5099966;28;20228;-63
2023/03/30 04:18:08;;;;;;;1.43;0.90;;;;;;;;;;5099638;28;20284;-64
2023/03/30 04:20:36;;;;;;;2.03;1.07;;;;;;;;;;5099841;28;20271;-63
2023/03/30 04:23:08;;;;;;;1.23;1.10;;;;;;;;;;5099624;28;20288;-64
2023/03/30 04:25:38;;;;;;;1.80;1.20;;;;;;;;;;5099740;28;20584;-63
2023/03/30 04:28:06;;;;;;;4.73;1.10;;;;;;;;;;5099955;28;20278;-62
2023/03/30 04:30:34;;;;;;;1.37;1.10;;;;;;;;;;5099835;28;20232;-63
2023/03/30 04:33:03;;;;;;;2.00;1.00;;;;;;;;;;5099499;28;20237;-62
2023/03/30 04:35:32;;;;;;;4.70;0.90;;;;;;;;;;5099661;28;20631;-62
2023/03/30 04:38:00;;;;;;;1.83;1.07;;;;;;;;;;5099500;28;20233;-62
2023/03/30 04:40:30;;;;;;;1.30;0.73;;;;;;;;;;5099623;28;20315;-63
2023/03/30 04:43:01;;;;;;;6.93;1.00;;;;;;;;;;5099558;28;20267;-63
2023/03/30 04:45:29;;;;;;;3.13;1.10;;;;;;;;;;5099719;28;20208;-62
2023/03/30 04:47:57;;;;;;;3.67;0.90;;;;;;;;;;5099075;28;20777;-63
2023/03/30 04:50:26;;;;;;;4.00;0.87;;;;;;;;;;5099553;28;20316;-64
2023/03/30 04:52:54;;;;;;;3.70;0.97;;;;;;;;;;5099185;28;20209;-64
2023/03/30 04:55:22;;;;;;;0.63;0.63;;;;;;;;;;5099485;28;20209;-63
2023/03/30 04:57:52;;;;;;;3.53;0.80;;;;;;;;;;5099096;28;20202;-64
2023/03/30 05:00:20;;;;;;;2.50;1.17;;;;;;;;;;5099161;28;20746;-64
2023/03/30 05:02:48;;;;;;;3.90;1.00;;;;;;;;;;5098927;28;20293;-63
2023/03/30 05:05:16;;;;;;;1.80;0.80;;;;;;;;;;5099348;28;20210;-64
2023/03/30 05:07:45;;;;;;;3.27;1.03;;;;;;;;;;5098707;28;20265;-63
2023/03/30 05:10:13;;;;;;;5.70;1.57;;;;;;;;;;5099169;28;20237;-64
2023/03/30 05:12:41;;;;;;;1.30;1.10;;;;;;;;;;5098781;28;20202;-62
2023/03/30 05:15:10;;;;;;;1.90;1.10;;;;;;;;;;5098757;28;20275;-64
2023/03/30 05:17:38;;;;;;;3.20;0.90;;;;;;;;;;5098687;28;20210;-62
2023/03/30 05:20:08;;;;;;;0.87;0.80;;;;;;;;;;5098625;28;20736;-63
2023/03/30 05:22:37;;;;;;;3.03;1.23;;;;;;;;;;5098455;28;20688;-62
2023/03/30 05:25:06;;;;;;;3.10;1.33;;;;;;;;;;5098438;28;20231;-63
2023/03/30 05:27:34;;;;;;;3.33;1.50;;;;;;;;;;5098792;28;20205;-59
2023/03/30 05:30:02;;;;;;;1.80;1.10;;;;;;;;;;5097340;28;20312;-59
2023/03/30 05:32:32;;;;;;;3.60;1.10;;;;;;;;;;5098399;28;20293;-59
2023/03/30 05:35:00;;;;;;;3.03;1.30;;;;;;;;;;5098614;28;20212;-59
2023/03/30 05:37:28;;;;;;;4.00;1.30;;;;;;;;;;5098327;28;20338;-60
2023/03/30 05:39:56;;;;;;;1.63;1.00;;;;;;;;;;5097924;28;20222;-59
2023/03/30 05:42:24;;;;;;;6.00;1.03;;;;;;;;;;5098310;28;20284;-60
2023/03/30 05:44:52;;;;;;;2.73;1.20;;;;;;;;;;5097661;28;20228;-60
2023/03/30 05:47:20;;;;;;;9.63;1.30;;;;;;;;;;5096151;28;20201;-60
2023/03/30 05:49:50;;;;;;;1.57;1.10;;;;;;;;;;5098444;28;20256;-60
2023/03/30 05:52:18;;;;;;;4.53;1.30;;;;;;;;;;5103078;28;20207;-59
2023/03/30 05:54:46;;;;;;;5.87;1.23;;;;;;;;;;5100059;28;20206;-60
2023/03/30 05:57:14;;;;;;;3.13;1.37;;;;;;;;;;5097908;28;20201;-63
2023/03/30 05:59:42;;;;;;;2.93;1.00;;;;;;;;;;5097998;28;20218;-63
2023/03/30 06:02:11;;;;;;;3.57;1.20;;;;;;;;;;5098232;28;20205;-62
2023/03/30 06:04:40;;;;;;;2.60;1.20;;;;;;;;;;5097150;28;20197;-62
2023/03/30 06:07:09;;;;;;;4.50;1.57;;;;;;;;;;5096978;28;20237;-61
2023/03/30 06:09:37;;;;;;;1.90;1.13;;;;;;;;;;5095003;28;20221;-60
2023/03/30 06:12:05;;;;;;;4.53;1.07;;;;;;;;;;5097336;28;20684;-61
2023/03/30 06:14:33;;;;;;;5.97;1.33;;;;;;;;;;5094656;28;20653;-60
2023/03/30 06:17:01;;;;;;;1.30;1.20;;;;;;;;;;5096441;28;20205;-61
2023/03/30 06:19:31;;;;;;;1.47;1.37;;;;;;;;;;5094263;28;20227;-60
2023/03/30 06:21:59;;;;;;;3.97;1.10;;;;;;;;;;5096196;28;20236;-62
2023/03/30 06:24:29;;;;;;;2.07;1.40;;;;;;;;;;5093687;28;20202;-61
2023/03/30 06:26:57;;;;;;;1.53;1.23;;;;;;;;;;5096333;28;20296;-61
2023/03/30 06:29:26;;;;;;;2.93;1.30;;;;;;;;;;5096325;28;20225;-61
2023/03/30 06:31:54;;;;;;;3.33;1.50;;;;;;;;;;5096175;28;20584;-60
2023/03/30 06:34:22;;;;;;;3.10;1.80;;;;;;;;;;5096078;28;20204;-61
2023/03/30 06:36:50;;;;;;;4.50;1.40;;;;;;;;;;5096106;28;20221;-62
2023/03/30 06:39:18;;;;;;;2.57;1.53;;;;;;;;;;5092485;28;20220;-63
2023/03/30 06:41:48;;;;;;;3.50;1.10;;;;;;;;;;5099199;28;20201;-63
2023/03/30 06:44:16;;;;;;;1.73;1.37;;;;;;;;;;5101561;28;20225;-63
2023/03/30 06:46:45;;;;;;;1.60;1.10;;;;;;;;;;5088200;28;20263;-63
2023/03/30 06:49:13;;;;;;;1.13;0.90;;;;;;;;;;5101216;28;20236;-63
2023/03/30 06:51:41;;;;;;;1.43;1.30;;;;;;;;;;5100125;28;20201;-63
2023/03/30 06:54:09;;;;;;;3.77;1.50;;;;;;;;;;5100889;28;20246;-62
2023/03/30 06:56:37;;;;;;;3.73;1.73;;;;;;;;;;5099759;28;20206;-63
2023/03/30 06:59:06;;;;;;;1.70;1.10;;;;;;;;;;5096214;28;20726;-62
2023/03/30 07:01:34;;;;;;;6.03;1.20;;;;;;;;;;5101259;28;20292;-63
2023/03/30 07:04:02;;;;;;;2.60;1.13;;;;;;;;;;5101411;28;20205;-63
2023/03/30 07:06:30;;;;;;;4.33;1.47;;;;;;;;;;5101157;28;20237;-63
2023/03/30 07:08:58;;;;;;;2.87;1.40;;;;;;;;;;5102018;28;20268;-63
2023/03/30 07:11:26;;;;;;;2.43;1.40;;;;;;;;;;5098130;28;20201;-63
2023/03/30 07:13:57;;;;;;;5.43;2.30;;;;;;;;;;5097883;28;20206;-63
2023/03/30 07:16:26;;;;;;;1.73;0.97;;;;;;;;;;5096380;28;20202;-62
2023/03/30 07:18:55;;;;;;;2.10;1.20;;;;;;;;;;5100164;28;20665;-63
2023/03/30 07:21:23;;;;;;;6.20;1.70;;;;;;;;;;5100535;28;20232;-63
2023/03/30 07:23:51;;;;;;;4.73;1.40;;;;;;;;;;5100256;28;20205;-62
2023/03/30 07:26:19;;;;;;;1.83;1.20;;;;;;;;;;5100733;28;20202;-62
2023/03/30 07:28:47;;;;;;;1.73;1.20;;;;;;;;;;5100515;28;20247;-62
2023/03/30 07:31:16;;;;;;;2.67;1.53;;;;;;;;;;5100611;28;20704;-62
2023/03/30 07:33:45;;;;;;;2.77;1.33;;;;;;;;;;5100585;28;20671;-62
2023/03/30 07:36:13;;;;;;;5.73;1.80;;;;;;;;;;5095152;28;20240;-62
2023/03/30 07:38:41;;;;;;;1.60;1.27;;;;;;;;;;5089164;28;20194;-62
2023/03/30 07:41:10;;;;;;;2.77;1.23;;;;;;;;;;5099788;28;20214;-61
2023/03/30 07:43:39;;;;;;;2.33;1.43;;;;;;;;;;5100195;28;20208;-63
2023/03/30 07:46:07;;;;;;;2.73;1.13;;;;;;;;;;5099551;28;20228;-62
2023/03/30 07:48:35;;;;;;;8.37;1.10;;;;;;;;;;5100225;28;20756;-62
2023/03/30 07:51:06;;;;;;;1.23;1.10;;;;;;;;;;5100084;28;20235;-63
2023/03/30 07:53:34;;;;;;;2.30;1.00;;;;;;;;;;5099021;28;20262;-62
2023/03/30 07:56:03;;;;;;;7.73;1.87;;;;;;;;;;5095819;28;20198;-62
2023/03/30 07:58:31;;;;;;;2.43;1.27;;;;;;;;;;5099557;28;20204;-61
2023/03/30 08:01:01;;;;;;;5.03;1.40;;;;;;;;;;5099193;28;20245;-63
2023/03/30 08:03:30;;;;;;;5.20;1.50;;;;;;;;;;5099756;28;20198;-63
2023/03/30 08:06:02;;;;;;;2.00;1.43;;;;;;;;;;5099692;28;20434;-62
2023/03/30 08:08:32;;;;;;;3.97;1.60;;;;;;;;;;5099460;28;20291;-62
2023/03/30 08:11:00;;;;;;;4.93;1.47;;;;;;;;;;5099709;28;20230;-63
2023/03/30 08:13:28;;;;;;;4.13;1.40;;;;;;;;;;5099898;28;20216;-64
2023/03/30 08:15:56;;;;;;;1.70;1.00;;;;;;;;;;5099669;28;20201;-62
2023/03/30 08:18:24;;;;;;;2.70;1.67;;;;;;;;;;5097789;28;20202;-63
2023/03/30 08:20:56;;;;;;;1.30;1.17;;;;;;;;;;5097110;28;20221;-63
2023/03/30 08:23:23;;;;;;;1.20;0.97;;;;;;;;;;5098666;28;20198;-63
2023/03/30 08:25:56;;;;;;;2.93;1.50;;;;;;;;;;5096663;28;20208;-63
2023/03/30 08:28:24;;;;;;;1.23;1.13;;;;;;;;;;5098921;28;20285;-63
2023/03/30 08:30:53;;;;;;;6.07;1.47;;;;;;;;;;5099671;28;20232;-61
2023/03/30 08:33:21;;;;;;;3.57;1.30;;;;;;;;;;5099457;28;20263;-62
2023/03/30 08:35:50;;;;;;;2.20;1.40;;;;;;;;;;5099594;28;20219;-62
2023/03/30 08:38:18;;;;;;;2.47;1.90;;;;;;;;;;5098710;28;20228;-62
2023/03/30 08:40:47;;;;;;;3.00;1.00;;;;;;;;;;5098574;28;20768;-63
2023/03/30 08:43:30;;;;;;;4.67;1.30;;;;;;;;;;5096459;28;20243;-62
2023/03/30 08:45:59;;;;;;;1.93;1.20;;;;;;;;;;5096444;28;20266;-63
2023/03/30 08:48:29;;;;;;;2.23;1.33;;;;;;;;;;5098989;28;20198;-64
2023/03/30 08:50:58;;;;;;;2.10;1.20;;;;;;;;;;5097135;28;20665;-64
2023/03/30 08:53:27;;;;;;;1.90;1.57;;;;;;;;;;5099294;28;20202;-64
2023/03/30 08:55:58;;;;;;;1.90;1.30;;;;;;;;;;5098979;28;20212;-63
2023/03/30 08:58:33;;;;;;;2.17;1.20;;;;;;;;;;5098983;28;20635;-65
2023/03/30 09:01:06;;;;;;;2.53;1.40;;;;;;;;;;5098099;28;20213;-65
2023/03/30 09:03:38;;;;;;;2.97;1.13;;;;;;;;;;5098225;28;20649;-65
2023/03/30 09:06:10;;;;;;;3.30;1.27;;;;;;;;;;5087059;28;20695;-63
2023/03/30 09:08:38;;;;;;;2.53;1.20;;;;;;;;;;5098442;28;20269;-64
2023/03/30 09:11:11;;;;;;;0.90;0.90;;;;;;;;;;5098522;28;20290;-65
2023/03/30 09:13:44;;;;;;;1.43;1.00;;;;;;;;;;5098383;28;20200;-65
2023/03/30 09:16:16;;;;;;;4.40;1.03;;;;;;;;;;5097891;28;20201;-65
2023/03/30 09:18:46;;;;;;;2.13;1.10;;;;;;;;;;5096797;28;20202;-66
2023/03/30 09:21:14;;;;;;;4.83;1.17;;;;;;;;;;5098027;28;20221;-65
2023/03/30 09:23:43;;;;;;;1.77;1.20;;;;;;;;;;5094944;28;20433;-65
2023/03/30 09:26:15;;;;;;;1.33;1.03;;;;;;;;;;5097950;28;20202;-65
2023/03/30 09:28:49;;;;;;;1.63;0.93;;;;;;;;;;5084723;28;20201;-65
2023/03/30 09:31:20;;;;;;;3.17;1.10;;;;;;;;;;5097870;28;20271;-65
2023/03/30 09:33:53;;;;;;;1.47;1.00;;;;;;;;;;5095521;28;20223;-65
2023/03/30 09:36:24;;;;;;;1.80;1.20;;;;;;;;;;5097641;28;20201;-65
2023/03/30 09:38:54;;;;;;;3.60;0.97;;;;;;;;;;5088531;28;20215;-64
2023/03/30 09:41:31;;;;;;;4.07;1.00;;;;;;;;;;5097707;28;20627;-65
2023/03/30 09:44:02;;;;;;;1.07;0.93;;;;;;;;;;5098405;28;20252;-63
2023/03/30 09:46:30;;;;;;;2.00;1.40;;;;;;;;;;5098119;28;20245;-64
2023/03/30 09:49:12;;;;;;;2.03;1.10;;;;;;;;;;5098061;28;20202;-64
2023/03/30 09:51:52;;;;;;;2.07;1.07;;;;;;;;;;5096845;28;20221;-66
2023/03/30 09:54:21;;;;;;;1.23;0.80;;;;;;;;;;5097005;28;20201;-64
2023/03/30 09:56:50;;;;;;;4.30;1.13;;;;;;;;;;5095486;28;20232;-64
2023/03/30 09:59:28;;;;;;;2.17;1.20;;;;;;;;;;5098146;28;20229;-66
2023/03/30 10:02:09;;;;;;;2.00;1.60;;;;;;;;;;5098285;28;20202;-65
2023/03/30 10:04:55;;;;;;;1.70;1.23;;;;;;;;;;5097690;28;20648;-65
2023/03/30 10:07:24;;;;;;;1.90;1.00;;;;;;;;;;5092507;28;20585;-65
2023/03/30 10:09:52;;;;;;;2.40;1.10;;;;;;;;;;5097136;28;20221;-63
2023/03/30 10:12:21;;;;;;;1.93;1.30;;;;;;;;;;5092482;28;20226;-66
2023/03/30 10:14:55;;;;;;;2.93;1.10;;;;;;;;;;5097089;28;20233;-65
2023/03/30 10:17:24;;;;;;;2.23;1.20;;;;;;;;;;5096307;28;20236;-64
2023/03/30 10:19:53;;;;;;;1.83;1.00;;;;;;;;;;5096757;28;20231;-63
2023/03/30 10:22:37;;;;;;;4.67;1.80;;;;;;;;;;5091519;28;20277;-64
2023/03/30 10:25:09;;;;;;;4.37;1.40;;;;;;;;;;5097362;28;20204;-63
2023/03/30 10:27:38;;;;;;;7.77;1.37;;;;;;;;;;5097622;28;20201;-65
2023/03/30 10:30:10;;;;;;;2.20;1.30;;;;;;;;;;5097769;28;20311;-63
2023/03/30 10:32:39;;;;;;;2.57;0.90;;;;;;;;;;5097252;28;20278;-63
2023/03/30 10:35:09;;;;;;;2.77;1.10;;;;;;;;;;5097520;28;20216;-64
2023/03/30 10:37:38;;;;;;;2.83;1.30;;;;;;;;;;5097060;28;20216;-64
2023/03/30 10:40:10;;;;;;;3.50;1.20;;;;;;;;;;5097318;28;20587;-65
2023/03/30 10:42:40;;;;;;;5.83;1.40;;;;;;;;;;5097605;28;20284;-64
2023/03/30 10:45:16;;;;;;;3.53;0.97;;;;;;;;;;5097466;28;20237;-63
2023/03/30 10:47:51;;;;;;;2.47;1.10;;;;;;;;;;5097495;28;20201;-63
2023/03/30 10:50:25;;;;;;;1.13;0.93;;;;;;;;;;5097404;28;20590;-64
2023/03/30 10:52:59;;;;;;;2.77;1.03;;;;;;;;;;5097061;28;20278;-65
2023/03/30 10:55:30;;;;;;;2.17;1.10;;;;;;;;;;5097495;28;20698;-65
2023/03/30 10:58:02;;;;;;;4.20;1.23;;;;;;;;;;5094957;28;20653;-65
2023/03/30 11:00:42;;;;;;;1.33;1.00;;;;;;;;;;5091839;28;20571;-64
2023/03/30 11:03:13;;;;;;;2.00;0.90;;;;;;;;;;5097182;28;20202;-65
2023/03/30 11:05:44;;;;;;;5.17;1.43;;;;;;;;;;5097120;28;20218;-64
2023/03/30 11:08:15;;;;;;;1.70;1.13;;;;;;;;;;5096564;28;20260;-64
2023/03/30 11:10:44;;;;;;;3.53;1.20;;;;;;;;;;5092470;28;20271;-65
2023/03/30 11:13:14;;;;;;;2.57;1.20;;;;;;;;;;5097049;28;20205;-65
2023/03/30 11:15:46;;;;;;;2.70;0.87;;;;;;;;;;5094452;28;20232;-64
2023/03/30 11:18:17;;;;;;;1.20;1.00;;;;;;;;;;5096865;28;20340;-64
2023/03/30 11:20:47;;;;;;;3.10;1.60;;;;;;;;;;5094447;28;20315;-65
2023/03/30 11:23:18;;;;;;;2.70;1.30;;;;;;;;;;5095589;28;20243;-65
2023/03/30 11:25:52;;;;;;;4.13;1.30;;;;;;;;;;5095859;28;20653;-65
2023/03/30 11:28:28;;;;;;;2.77;1.20;;;;;;;;;;5095091;28;20251;-65
2023/03/30 11:31:03;;;;;;;2.83;1.03;;;;;;;;;;5096714;28;20217;-65
2023/03/30 11:33:34;;;;;;;6.60;1.07;;;;;;;;;;5099592;28;20232;-65
2023/03/30 11:36:06;;;;;;;4.00;1.33;;;;;;;;;;5099614;28;20205;-65
2023/03/30 11:38:41;;;;;;;2.60;1.40;;;;;;;;;;5100238;28;20210;-65
2023/03/30 11:41:12;;;;;;;4.67;1.43;;;;;;;;;;5100543;28;20251;-65
2023/03/30 11:43:41;;;;;;;3.97;0.90;;;;;;;;;;5100359;28;20209;-65
2023/03/30 11:46:16;;;;;;;2.27;1.30;;;;;;;;;;5100464;28;20642;-65
2023/03/30 11:48:53;;;;;;;1.50;1.03;;;;;;;;;;5100763;28;20215;-65
2023/03/30 11:51:26;;;;;;;5.83;1.60;;;;;;;;;;5100174;28;20327;-65
2023/03/30 11:53:58;;;;;;;5.23;1.50;;;;;;;;;;5100721;28;20236;-65
2023/03/30 11:56:30;;;;;;;5.40;1.30;;;;;;;;;;5100576;28;20227;-65
2023/03/30 11:59:03;;;;;;;5.57;1.40;;;;;;;;;;5100285;28;20661;-65
2023/03/30 12:01:50;;;;;;;2.67;1.33;;;;;;;;;;5097526;28;20209;-65
2023/03/30 12:04:25;;;;;;;5.77;1.30;;;;;;;;;;5098991;28;20208;-65
2023/03/30 12:06:56;;;;;;;2.70;1.17;;;;;;;;;;5100005;28;20208;-65
2023/03/30 12:09:25;;;;;;;4.10;1.30;;;;;;;;;;5100152;28;20282;-65
2023/03/30 12:11:56;;;;;;;1.57;1.10;;;;;;;;;;5100326;28;20320;-65
2023/03/30 12:14:39;;;;;;;2.30;1.53;;;;;;;;;;5099965;28;20211;-65
2023/03/30 12:17:12;;;;;;;1.83;1.20;;;;;;;;;;5099947;28;20231;-65
2023/03/30 12:19:42;;;;;;;1.77;1.00;;;;;;;;;;5099847;28;20421;-65
2023/03/30 12:22:26;;;;;;;3.33;1.30;;;;;;;;;;5099544;28;20562;-65
2023/03/30 12:24:58;;;;;;;3.67;1.73;;;;;;;;;;5100150;28;20220;-65
2023/03/30 12:27:27;;;;;;;3.40;1.70;;;;;;;;;;5099707;28;20729;-65
2023/03/30 12:30:11;;;;;;;3.37;1.30;;;;;;;;;;5099771;28;20222;-65
2023/03/30 12:32:56;;;;;;;6.30;1.70;;;;;;;;;;5099523;28;20585;-65
2023/03/30 12:35:43;;;;;;;6.20;1.80;;;;;;;;;;5099878;28;20217;-65
2023/03/30 12:38:15;;;;;;;3.67;1.20;;;;;;;;;;5099584;28;20220;-65
2023/03/30 12:40:46;;;;;;;4.57;1.43;;;;;;;;;;5099294;28;20221;-65
2023/03/30 12:43:19;;;;;;;2.53;1.30;;;;;;;;;;5099710;28;20215;-65
2023/03/30 12:46:00;;;;;;;4.13;1.07;;;;;;;;;;5099288;28;20231;-65
2023/03/30 12:48:35;;;;;;;1.90;1.17;;;;;;;;;;5099299;28;20209;-65
2023/03/30 12:51:10;;;;;;;5.40;1.57;;;;;;;;;;5099284;28;20255;-65
2023/03/30 12:53:55;;;;;;;4.90;1.37;;;;;;;;;;5099159;28;20225;-65
2023/03/30 12:56:30;;;;;;;5.00;1.77;;;;;;;;;;5099173;28;20661;-65
2023/03/30 12:59:02;;;;;;;10.07;2.10;;;;;;;;;;5086533;28;20201;-65
2023/03/30 13:01:39;;;;;;;28.70;4.97;;;;;;;;;;5099307;28;20228;-65
2023/03/30 13:04:14;;;;;;;47.73;6.60;;;;;;;;;;5099363;28;20254;-65
2023/03/30 13:06:48;;;;;;;9.27;2.03;;;;;;;;;;5098647;28;20239;-65
2023/03/30 13:09:30;;;;;;;4.47;1.90;;;;;;;;;;5098894;28;20205;-65
2023/03/30 13:12:21;;;;;;;3.40;1.97;;;;;;;;;;5098761;28;20216;-65
2023/03/30 13:14:57;;;;;;;9.17;2.17;;;;;;;;;;5099008;28;20205;-65
2023/03/30 13:17:25;;;;;;;5.20;1.90;;;;;;;;;;5099043;28;20213;-65
2023/03/30 13:20:15;;;;;;;3.17;1.50;;;;;;;;;;5098676;28;20237;-65
2023/03/30 13:23:00;;;;;;;2.80;1.47;;;;;;;;;;5098721;28;20237;-65
2023/03/30 13:25:36;;;;;;;4.60;1.50;;;;;;;;;;5098711;28;20749;-65
2023/03/30 13:28:19;;;;;;;4.17;1.87;;;;;;;;;;5098896;28;20201;-65
2023/03/30 13:30:47;;;;;;;4.33;1.83;;;;;;;;;;5098427;28;20229;-65
2023/03/30 13:33:18;;;;;;;2.90;1.80;;;;;;;;;;5098382;28;20225;-65
2023/03/30 13:35:52;;;;;;;3.23;1.90;;;;;;;;;;5098563;28;20213;-65
2023/03/30 13:38:34;;;;;;;5.73;2.50;;;;;;;;;;5098281;28;20571;-65
2023/03/30 13:41:09;;;;;;;2.77;1.80;;;;;;;;;;5098170;28;20217;-65
2023/03/30 13:43:43;;;;;;;4.50;1.67;;;;;;;;;;5098412;28;20204;-65
2023/03/30 13:46:15;;;;;;;1.90;1.80;;;;;;;;;;5098460;28;20212;-65
2023/03/30 13:49:02;;;;;;;6.80;2.00;;;;;;;;;;5098549;28;20288;-65
2023/03/30 13:51:32;;;;;;;2.97;1.73;;;;;;;;;;5097245;28;20297;-65
2023/03/30 13:54:01;;;;;;;4.43;1.93;;;;;;;;;;5098357;28;20236;-65
2023/03/30 13:56:31;;;;;;;3.27;1.40;;;;;;;;;;5098131;28;20264;-65
2023/03/30 13:59:01;;;;;;;3.43;1.90;;;;;;;;;;5098013;28;20658;-65
2023/03/30 14:01:29;;;;;;;4.33;1.63;;;;;;;;;;5097995;28;20304;-65
2023/03/30 14:03:59;;;;;;;2.83;1.43;;;;;;;;;;5087557;28;20202;-65
2023/03/30 14:06:28;;;;;;;2.07;1.87;;;;;;;;;;5098217;28;20207;-65
2023/03/30 14:09:10;;;;;;;5.30;1.80;;;;;;;;;;5097616;28;20247;-65
2023/03/30 14:11:40;;;;;;;5.77;1.83;;;;;;;;;;5098006;28;20237;-65
2023/03/30 14:14:08;;;;;;;7.67;1.90;;;;;;;;;;5097755;28;20312;-65
2023/03/30 14:16:37;;;;;;;1.47;1.37;;;;;;;;;;5097822;28;20616;-65
2023/03/30 14:19:09;;;;;;;2.80;1.70;;;;;;;;;;5097898;28;20213;-65
2023/03/30 14:21:37;;;;;;;5.03;1.90;;;;;;;;;;5097544;28;20206;-65
2023/03/30 14:24:10;;;;;;;6.30;1.90;;;;;;;;;;5097844;28;20256;-65
2023/03/30 14:26:39;;;;;;;3.83;1.83;;;;;;;;;;5098042;28;20248;-65
2023/03/30 14:29:10;;;;;;;8.03;1.77;;;;;;;;;;5097898;28;20268;-64
2023/03/30 14:31:42;;;;;;;3.93;1.73;;;;;;;;;;5097780;28;20201;-66
2023/03/30 14:34:25;;;;;;;3.77;1.80;;;;;;;;;;5098079;28;20235;-66
2023/03/30 14:36:53;;;;;;;4.03;1.90;;;;;;;;;;5097548;28;20209;-66
2023/03/30 14:39:23;;;;;;;5.43;3.57;;;;;;;;;;5097846;28;20220;-64
2023/03/30 14:41:51;;;;;;;4.33;1.47;;;;;;;;;;5095507;28;20210;-64
2023/03/30 14:44:21;;;;;;;9.13;2.03;;;;;;;;;;5097525;28;20213;-64
2023/03/30 14:46:50;;;;;;;6.07;1.80;;;;;;;;;;5097781;28;20206;-65
2023/03/30 14:49:20;;;;;;;4.47;2.30;;;;;;;;;;5097342;28;20252;-65
2023/03/30 14:51:48;;;;;;;6.43;2.13;;;;;;;;;;5094782;28;20292;-65
2023/03/30 14:54:17;;;;;;;3.93;2.20;;;;;;;;;;5092946;28;20229;-65
2023/03/30 14:56:47;;;;;;;5.43;2.30;;;;;;;;;;5089340;28;20201;-64
2023/03/30 14:59:18;;;;;;;3.33;1.83;;;;;;;;;;5096493;28;20206;-65
2023/03/30 15:01:46;;;;;;;6.00;2.13;;;;;;;;;;5097143;28;20202;-65
2023/03/30 15:04:15;;;;;;;4.23;1.93;;;;;;;;;;5094624;28;20190;-66
2023/03/30 15:06:43;;;;;;;4.83;2.00;;;;;;;;;;5097185;28;20193;-65